createdAt,value
2019-03-04T00:00:02.051Z,10.30
2019-03-04T00:01:57.562Z,10.30
2019-03-04T00:03:50.407Z,10.30
2019-03-04T00:05:43.308Z,10.40
2019-03-04T00:07:36.257Z,10.50
2019-03-04T00:09:29.076Z,10.50
2019-03-04T00:11:21.884Z,10.50
2019-03-04T00:13:15.546Z,10.50
2019-03-04T00:15:08.848Z,10.50
2019-03-04T00:17:01.478Z,10.40
2019-03-04T00:18:54.461Z,10.40
2019-03-04T00:20:47.261Z,10.50
2019-03-04T00:22:40.238Z,10.50
2019-03-04T00:24:33.220Z,10.50
2019-03-04T00:26:26.092Z,10.50
2019-03-04T00:28:19.056Z,10.50
2019-03-04T00:30:11.999Z,10.50
2019-03-04T00:32:05.996Z,10.50
2019-03-04T00:33:58.845Z,10.50
2019-03-04T00:35:51.672Z,10.50
2019-03-04T00:37:44.235Z,10.40
2019-03-04T00:39:37.183Z,10.30
2019-03-04T00:41:29.679Z,10.30
2019-03-04T00:43:22.474Z,10.30
2019-03-04T00:45:15.314Z,10.40
2019-03-04T00:47:07.789Z,10.30
2019-03-04T00:49:00.404Z,10.30
2019-03-04T00:50:53.311Z,10.30
2019-03-04T00:52:47.421Z,10.30
2019-03-04T00:54:40.402Z,10.30
2019-03-04T00:56:33.245Z,10.30
2019-03-04T00:58:25.708Z,10.30
2019-03-04T01:00:26.067Z,10.30
2019-03-04T01:02:19.104Z,10.40
2019-03-04T01:04:11.984Z,10.40
2019-03-04T01:06:04.586Z,10.40
2019-03-04T01:07:57.552Z,10.40
2019-03-04T01:09:49.924Z,10.40
2019-03-04T01:11:42.669Z,10.40
2019-03-04T01:13:38.956Z,10.40
2019-03-04T01:15:32.286Z,10.40
2019-03-04T01:17:25.153Z,10.40
2019-03-04T01:19:18.055Z,10.40
2019-03-04T01:21:10.847Z,10.50
2019-03-04T01:23:03.772Z,10.60
2019-03-04T01:24:56.648Z,10.60
2019-03-04T01:26:49.347Z,10.50
2019-03-04T01:28:42.169Z,10.50
2019-03-04T01:30:35.025Z,10.50
2019-03-04T01:32:28.284Z,10.50
2019-03-04T01:34:22.147Z,10.40
2019-03-04T01:36:14.528Z,10.50
2019-03-04T01:38:07.046Z,10.40
2019-03-04T01:39:59.449Z,10.40
2019-03-04T01:41:52.403Z,10.30
2019-03-04T01:43:45.288Z,10.40
2019-03-04T01:45:38.064Z,10.30
2019-03-04T01:47:30.642Z,10.30
2019-03-04T01:49:23.900Z,10.30
2019-03-04T01:51:16.770Z,10.30
2019-03-04T01:53:09.743Z,10.40
2019-03-04T01:55:02.607Z,10.30
2019-03-04T01:56:55.346Z,10.30
2019-03-04T01:58:48.274Z,10.30
2019-03-04T02:00:40.996Z,10.30
2019-03-04T02:02:33.842Z,10.20
2019-03-04T02:04:27.935Z,10.30
2019-03-04T02:06:20.598Z,10.20
2019-03-04T02:08:13.652Z,10.20
2019-03-04T02:10:11.945Z,10.20
2019-03-04T02:12:05.020Z,10.20
2019-03-04T02:13:57.928Z,10.20
2019-03-04T02:15:51.339Z,10.10
2019-03-04T02:17:44.256Z,10.10
2019-03-04T02:19:36.696Z,10.10
2019-03-04T02:21:29.222Z,10.10
2019-03-04T02:23:22.168Z,10.00
2019-03-04T02:25:37.800Z,10.00
2019-03-04T02:27:31.589Z,10.00
2019-03-04T02:29:24.420Z,9.90
2019-03-04T02:31:18.242Z,9.90
2019-03-04T02:33:11.270Z,9.90
2019-03-04T02:35:05.133Z,10.00
2019-03-04T02:36:58.002Z,9.80
2019-03-04T02:38:50.809Z,9.80
2019-03-04T02:40:43.667Z,9.80
2019-03-04T02:42:36.102Z,9.70
2019-03-04T02:44:29.033Z,9.70
2019-03-04T02:46:21.889Z,9.70
2019-03-04T02:48:14.358Z,9.70
2019-03-04T02:50:08.140Z,9.60
2019-03-04T02:52:01.261Z,9.60
2019-03-04T02:53:54.010Z,9.60
2019-03-04T02:55:46.668Z,9.60
2019-03-04T02:57:40.739Z,9.50
2019-03-04T02:59:34.479Z,9.40
2019-03-04T03:01:27.280Z,9.40
2019-03-04T03:03:20.190Z,9.40
2019-03-04T03:05:12.973Z,9.50
2019-03-04T03:07:05.449Z,9.50
2019-03-04T03:08:58.460Z,9.30
2019-03-04T03:10:51.162Z,9.20
2019-03-04T03:12:44.368Z,9.20
2019-03-04T03:14:37.228Z,9.20
2019-03-04T03:16:29.835Z,9.20
2019-03-04T03:18:23.144Z,9.10
2019-03-04T03:20:16.725Z,9.10
2019-03-04T03:22:09.623Z,9.20
2019-03-04T03:24:02.566Z,9.20
2019-03-04T03:25:55.373Z,9.10
2019-03-04T03:27:48.169Z,9.10
2019-03-04T03:29:42.156Z,9.00
2019-03-04T03:31:35.329Z,9.00
2019-03-04T03:33:28.090Z,9.00
2019-03-04T03:35:20.937Z,9.00
2019-03-04T03:37:13.680Z,9.00
2019-03-04T03:39:06.530Z,8.90
2019-03-04T03:41:00.557Z,8.90
2019-03-04T03:42:53.326Z,8.90
2019-03-04T03:44:46.684Z,8.90
2019-03-04T03:46:39.675Z,8.90
2019-03-04T03:48:32.509Z,8.90
2019-03-04T03:50:25.072Z,8.90
2019-03-04T03:52:17.960Z,8.80
2019-03-04T03:54:10.685Z,8.90
2019-03-04T03:56:04.046Z,8.90
2019-03-04T03:57:56.893Z,8.90
2019-03-04T03:59:49.764Z,8.90
2019-03-04T04:01:42.707Z,8.80
2019-03-04T04:03:35.526Z,8.90
2019-03-04T04:05:28.332Z,8.90
2019-03-04T04:07:20.746Z,8.90
2019-03-04T04:09:13.659Z,8.90
2019-03-04T04:11:06.475Z,8.90
2019-03-04T04:13:00.959Z,8.90
2019-03-04T04:14:53.985Z,8.90
2019-03-04T04:16:46.888Z,8.90
2019-03-04T04:18:39.961Z,8.90
2019-03-04T04:20:33.024Z,8.80
2019-03-04T04:22:25.897Z,8.90
2019-03-04T04:24:18.384Z,8.80
2019-03-04T04:26:23.306Z,8.80
2019-03-04T04:28:16.018Z,8.70
2019-03-04T04:30:11.913Z,8.70
2019-03-04T04:32:04.606Z,8.70
2019-03-04T04:33:57.576Z,8.70
2019-03-04T04:35:50.748Z,8.70
2019-03-04T04:37:44.000Z,8.60
2019-03-04T04:39:36.559Z,8.70
2019-03-04T04:41:29.518Z,8.70
2019-03-04T04:43:22.524Z,8.60
2019-03-04T04:45:15.416Z,8.60
2019-03-04T04:47:08.092Z,8.60
2019-03-04T04:49:00.903Z,8.60
2019-03-04T04:50:53.885Z,8.50
2019-03-04T04:52:47.007Z,8.60
2019-03-04T04:54:39.908Z,8.60
2019-03-04T04:56:32.703Z,8.60
2019-03-04T04:58:25.457Z,8.70
2019-03-04T05:00:20.035Z,8.60
2019-03-04T05:02:13.206Z,8.70
2019-03-04T05:04:06.052Z,8.70
2019-03-04T05:05:58.873Z,8.70
2019-03-04T05:07:52.141Z,8.70
2019-03-04T05:09:45.028Z,8.70
2019-03-04T05:11:38.665Z,8.60
2019-03-04T05:13:31.892Z,8.60
2019-03-04T05:15:24.789Z,8.60
2019-03-04T05:17:17.769Z,8.60
2019-03-04T05:19:10.676Z,8.60
2019-03-04T05:21:03.508Z,8.60
2019-03-04T05:22:56.476Z,8.70
2019-03-04T05:24:49.363Z,8.60
2019-03-04T05:26:42.324Z,8.70
2019-03-04T05:28:35.457Z,8.70
2019-03-04T05:30:28.478Z,8.70
2019-03-04T05:32:22.077Z,8.60
2019-03-04T05:34:16.057Z,8.60
2019-03-04T05:36:08.934Z,8.70
2019-03-04T05:38:02.529Z,8.70
2019-03-04T05:39:55.389Z,8.70
2019-03-04T05:41:47.857Z,8.80
2019-03-04T05:43:40.862Z,8.60
2019-03-04T05:45:34.005Z,8.50
2019-03-04T05:47:27.268Z,8.50
2019-03-04T05:49:20.414Z,8.50
2019-03-04T05:51:13.385Z,8.40
2019-03-04T05:53:06.221Z,8.40
2019-03-04T05:54:59.212Z,8.50
2019-03-04T05:56:52.749Z,8.50
2019-03-04T05:58:45.839Z,8.50
2019-03-04T06:00:46.480Z,8.60
2019-03-04T06:02:39.257Z,8.50
2019-03-04T06:04:31.928Z,8.50
2019-03-04T06:06:43.013Z,8.60
2019-03-04T06:08:36.037Z,8.60
2019-03-04T06:10:29.159Z,8.70
2019-03-04T06:12:21.936Z,8.70
2019-03-04T06:14:14.998Z,8.80
2019-03-04T06:16:07.832Z,8.80
2019-03-04T06:18:00.577Z,8.80
2019-03-04T06:19:53.118Z,8.80
2019-03-04T06:21:46.197Z,8.90
2019-03-04T06:23:39.178Z,9.00
2019-03-04T06:25:32.061Z,9.00
2019-03-04T06:27:24.899Z,9.10
2019-03-04T06:29:17.382Z,9.10
2019-03-04T06:31:10.130Z,9.10
2019-03-04T06:33:02.929Z,9.10
2019-03-04T06:34:55.931Z,9.20
2019-03-04T06:36:48.810Z,9.20
2019-03-04T06:38:41.831Z,9.20
2019-03-04T06:40:34.735Z,9.30
2019-03-04T06:42:27.940Z,9.30
2019-03-04T06:44:20.305Z,9.30
2019-03-04T06:46:12.788Z,9.40
2019-03-04T06:48:05.128Z,9.40
2019-03-04T06:50:00.287Z,9.40
2019-03-04T06:51:54.220Z,9.40
2019-03-04T06:54:02.371Z,9.40
2019-03-04T06:56:30.086Z,9.40
2019-03-04T06:58:23.434Z,9.50
2019-03-04T07:00:22.427Z,9.60
2019-03-04T07:02:21.254Z,9.60
2019-03-04T07:04:20.082Z,9.70
2019-03-04T07:06:13.766Z,9.70
2019-03-04T07:08:06.314Z,9.70
2019-03-04T07:09:59.133Z,9.80
2019-03-04T07:11:51.950Z,9.90
2019-03-04T07:13:44.768Z,10.00
2019-03-04T07:15:37.592Z,10.00
2019-03-04T07:17:30.845Z,10.00
2019-03-04T07:19:23.472Z,10.10
2019-03-04T07:21:16.489Z,10.10
2019-03-04T07:23:09.485Z,10.00
2019-03-04T07:25:02.416Z,10.10
2019-03-04T07:26:55.360Z,10.20
2019-03-04T07:28:48.358Z,10.20
2019-03-04T07:30:40.835Z,10.20
2019-03-04T07:32:33.668Z,10.30
2019-03-04T07:34:26.785Z,10.50
2019-03-04T07:36:20.184Z,10.50
2019-03-04T07:38:20.042Z,10.60
2019-03-04T07:40:17.993Z,10.70
2019-03-04T07:42:10.647Z,10.70
2019-03-04T07:44:02.939Z,10.60
2019-03-04T07:45:55.703Z,10.60
2019-03-04T07:47:48.626Z,10.80
2019-03-04T07:49:41.693Z,10.90
2019-03-04T07:51:34.797Z,10.90
2019-03-04T07:53:27.129Z,10.90
2019-03-04T07:55:19.945Z,10.90
2019-03-04T07:57:12.774Z,10.90
2019-03-04T07:59:05.314Z,11.00
2019-03-04T08:00:58.717Z,11.00
2019-03-04T08:02:52.027Z,11.10
2019-03-04T08:04:44.844Z,11.20
2019-03-04T08:06:37.779Z,11.30
2019-03-04T08:08:30.756Z,11.40
2019-03-04T08:10:48.545Z,11.40
2019-03-04T08:12:56.980Z,11.50
2019-03-04T08:14:50.124Z,11.60
2019-03-04T08:16:43.074Z,11.70
2019-03-04T08:18:35.354Z,11.80
2019-03-04T08:20:27.841Z,12.00
2019-03-04T08:22:20.336Z,12.20
2019-03-04T08:24:14.436Z,12.40
2019-03-04T08:26:06.876Z,12.50
2019-03-04T08:27:59.748Z,12.70
2019-03-04T08:29:52.282Z,12.90
2019-03-04T08:31:45.921Z,13.10
2019-03-04T08:33:39.211Z,13.30
2019-03-04T08:35:31.843Z,13.40
2019-03-04T08:37:25.079Z,13.50
2019-03-04T08:39:18.429Z,13.70
2019-03-04T08:41:11.692Z,13.80
2019-03-04T08:43:04.560Z,14.00
2019-03-04T08:44:56.978Z,14.10
2019-03-04T08:46:50.103Z,14.40
2019-03-04T08:48:42.946Z,14.60
2019-03-04T08:50:35.793Z,14.80
2019-03-04T08:52:28.610Z,15.00
2019-03-04T08:54:21.579Z,15.00
2019-03-04T08:56:14.227Z,15.10
2019-03-04T08:58:07.306Z,15.20
2019-03-04T09:00:00.289Z,15.30
2019-03-04T09:01:52.665Z,15.40
2019-03-04T09:03:45.356Z,15.60
2019-03-04T09:05:37.776Z,15.90
2019-03-04T09:07:30.596Z,16.00
2019-03-04T09:09:22.972Z,16.20
2019-03-04T09:11:15.953Z,16.40
2019-03-04T09:13:08.412Z,16.30
2019-03-04T09:15:01.181Z,16.30
2019-03-04T09:16:54.106Z,16.30
2019-03-04T09:18:46.567Z,16.40
2019-03-04T09:20:39.844Z,16.40
2019-03-04T09:22:32.460Z,16.60
2019-03-04T09:24:24.991Z,16.70
2019-03-04T09:26:17.376Z,16.50
2019-03-04T09:28:10.144Z,16.60
2019-03-04T09:30:04.379Z,16.70
2019-03-04T09:31:57.516Z,16.90
2019-03-04T09:33:51.410Z,16.90
2019-03-04T09:35:44.214Z,17.20
2019-03-04T09:37:36.632Z,17.30
2019-03-04T09:39:29.743Z,17.50
2019-03-04T09:41:22.604Z,17.70
2019-03-04T09:43:15.641Z,18.00
2019-03-04T09:45:13.360Z,18.20
2019-03-04T09:47:06.555Z,18.50
2019-03-04T09:48:59.590Z,18.30
2019-03-04T09:50:52.450Z,18.10
2019-03-04T09:52:45.410Z,17.90
2019-03-04T09:54:38.541Z,17.80
2019-03-04T09:56:31.363Z,17.70
2019-03-04T09:58:23.800Z,17.40
2019-03-04T10:00:35.320Z,17.30
2019-03-04T10:02:27.989Z,17.00
2019-03-04T10:04:36.196Z,17.10
2019-03-04T10:06:50.503Z,17.40
2019-03-04T10:09:20.286Z,17.70
2019-03-04T10:11:19.185Z,17.50
2019-03-04T10:13:27.234Z,17.40
2019-03-04T10:15:31.799Z,17.50
2019-03-04T10:17:36.741Z,17.60
2019-03-04T10:19:49.778Z,17.80
2019-03-04T10:21:57.707Z,17.80
2019-03-04T10:24:26.976Z,18.00
2019-03-04T10:26:38.518Z,18.10
2019-03-04T10:28:52.790Z,18.10
2019-03-04T10:30:52.078Z,17.70
2019-03-04T10:33:00.026Z,17.40
2019-03-04T10:35:15.544Z,16.80
2019-03-04T10:37:28.488Z,16.40
2019-03-04T10:39:36.723Z,16.20
2019-03-04T10:41:48.075Z,16.20
2019-03-04T10:43:47.057Z,16.00
2019-03-04T10:46:12.381Z,16.00
2019-03-04T10:48:05.533Z,15.90
2019-03-04T10:49:58.497Z,16.00
2019-03-04T10:51:51.413Z,16.30
2019-03-04T10:53:44.333Z,16.60
2019-03-04T10:55:41.989Z,16.80
2019-03-04T10:57:33.097Z,16.90
2019-03-04T10:59:26.041Z,16.70
2019-03-04T11:01:19.356Z,16.60
2019-03-04T11:03:12.109Z,16.40
2019-03-04T11:05:04.701Z,16.10
2019-03-04T11:06:57.601Z,16.10
2019-03-04T11:08:50.320Z,16.00
2019-03-04T11:10:43.509Z,16.00
2019-03-04T11:12:36.423Z,15.40
2019-03-04T11:14:29.142Z,15.10
2019-03-04T11:16:22.005Z,15.00
2019-03-04T11:18:14.905Z,14.80
2019-03-04T11:20:08.935Z,14.70
2019-03-04T11:22:02.295Z,14.70
2019-03-04T11:23:55.585Z,14.60
2019-03-04T11:25:48.334Z,14.30
2019-03-04T11:27:40.860Z,14.20
2019-03-04T11:29:34.164Z,14.30
2019-03-04T11:31:27.031Z,14.30
2019-03-04T11:33:20.159Z,14.40
2019-03-04T11:35:12.995Z,14.40
2019-03-04T11:37:07.024Z,14.40
2019-03-04T11:39:01.224Z,14.20
2019-03-04T11:40:55.624Z,14.20
2019-03-04T11:42:50.528Z,14.10
2019-03-04T11:44:42.967Z,13.90
2019-03-04T11:46:35.804Z,13.70
2019-03-04T11:48:28.628Z,13.60
2019-03-04T11:50:21.534Z,13.50
2019-03-04T11:52:14.622Z,13.40
2019-03-04T11:54:07.472Z,13.10
2019-03-04T11:56:00.410Z,12.80
2019-03-04T11:57:53.417Z,12.60
2019-03-04T11:59:46.493Z,12.30
2019-03-04T12:01:40.948Z,12.20
2019-03-04T12:03:34.032Z,12.00
2019-03-04T12:05:27.213Z,11.90
2019-03-04T12:07:21.260Z,11.60
2019-03-04T12:09:15.998Z,11.60
2019-03-04T12:11:08.902Z,11.60
2019-03-04T12:13:01.829Z,11.40
2019-03-04T12:14:54.844Z,11.30
2019-03-04T12:16:47.399Z,11.30
2019-03-04T12:18:39.928Z,11.20
2019-03-04T12:20:32.770Z,11.00
2019-03-04T12:22:25.766Z,10.90
2019-03-04T12:24:20.001Z,10.90
2019-03-04T12:26:13.094Z,10.80
2019-03-04T12:28:06.885Z,10.70
2019-03-04T12:29:59.620Z,10.60
2019-03-04T12:31:54.102Z,10.50
2019-03-04T12:33:46.786Z,10.30
2019-03-04T12:35:39.220Z,10.40
2019-03-04T12:37:32.455Z,10.30
2019-03-04T12:39:24.655Z,10.10
2019-03-04T12:41:17.466Z,10.00
2019-03-04T12:43:10.393Z,9.90
2019-03-04T12:45:04.145Z,9.80
2019-03-04T12:46:57.971Z,9.80
2019-03-04T12:48:50.830Z,9.80
2019-03-04T12:50:43.731Z,9.70
2019-03-04T12:52:36.638Z,9.60
2019-03-04T12:54:29.584Z,9.60
2019-03-04T12:56:22.238Z,9.60
2019-03-04T12:58:15.057Z,9.50
2019-03-04T13:00:11.406Z,9.40
2019-03-04T13:02:05.851Z,9.30
2019-03-04T13:03:58.958Z,9.20
2019-03-04T13:05:51.799Z,9.20
2019-03-04T13:07:45.460Z,9.20
2019-03-04T13:09:37.868Z,9.10
2019-03-04T13:11:30.473Z,8.90
2019-03-04T13:13:22.876Z,8.80
2019-03-04T13:15:35.069Z,8.80
2019-03-04T13:17:28.193Z,8.70
2019-03-04T13:19:21.057Z,8.60
2019-03-04T13:21:13.522Z,8.50
2019-03-04T13:23:06.394Z,8.40
2019-03-04T13:24:59.712Z,8.40
2019-03-04T13:26:52.537Z,8.40
2019-03-04T13:28:45.358Z,8.40
2019-03-04T13:30:40.116Z,8.30
2019-03-04T13:32:32.624Z,8.30
2019-03-04T13:34:25.770Z,8.30
2019-03-04T13:36:18.816Z,8.30
2019-03-04T13:38:11.225Z,8.20
2019-03-04T13:40:06.667Z,8.20
2019-03-04T13:42:00.028Z,8.20
2019-03-04T13:43:52.815Z,8.20
2019-03-04T13:45:46.131Z,8.10
2019-03-04T13:47:39.398Z,8.10
2019-03-04T13:49:32.585Z,8.10
2019-03-04T13:51:24.720Z,8.10
2019-03-04T13:53:17.442Z,8.10
2019-03-04T13:55:10.822Z,8.10
2019-03-04T13:57:03.792Z,8.10
2019-03-04T13:58:56.140Z,8.10
2019-03-04T14:00:48.908Z,8.10
2019-03-04T14:02:41.712Z,8.10
2019-03-04T14:04:34.368Z,8.20
2019-03-04T14:06:26.709Z,8.10
2019-03-04T14:08:19.619Z,8.10
2019-03-04T14:10:18.280Z,8.10
2019-03-04T14:12:11.621Z,8.00
2019-03-04T14:14:06.849Z,8.00
2019-03-04T14:16:00.098Z,7.90
2019-03-04T14:17:53.383Z,7.90
2019-03-04T14:19:46.267Z,8.00
2019-03-04T14:21:39.810Z,8.00
2019-03-04T14:23:33.262Z,8.00
2019-03-04T14:25:25.727Z,7.80
2019-03-04T14:27:19.003Z,7.90
2019-03-04T14:29:11.872Z,7.90
2019-03-04T14:31:05.350Z,7.70
2019-03-04T14:32:58.091Z,7.70
2019-03-04T14:34:51.943Z,7.70
2019-03-04T14:36:46.270Z,7.80
2019-03-04T14:38:39.079Z,7.70
2019-03-04T14:40:31.946Z,7.80
2019-03-04T14:42:24.880Z,7.80
2019-03-04T14:44:17.651Z,7.70
2019-03-04T14:46:14.084Z,7.70
2019-03-04T14:48:07.030Z,7.60
2019-03-04T14:50:09.599Z,7.60
2019-03-04T14:51:55.785Z,7.60
2019-03-04T14:53:48.641Z,7.60
2019-03-04T14:55:42.529Z,7.60
2019-03-04T14:57:35.468Z,7.60
2019-03-04T14:59:28.465Z,7.60
2019-03-04T15:01:21.382Z,7.60
2019-03-04T15:03:22.039Z,7.60
2019-03-04T15:05:08.988Z,7.60
2019-03-04T15:07:03.065Z,7.60
2019-03-04T15:08:55.397Z,7.60
2019-03-04T15:10:48.207Z,7.60
2019-03-04T15:12:40.975Z,7.60
2019-03-04T15:14:33.666Z,7.60
2019-03-04T15:16:26.513Z,7.70
2019-03-04T15:18:19.864Z,7.70
2019-03-04T15:20:20.042Z,7.70
2019-03-04T15:22:13.049Z,7.70
2019-03-04T15:24:05.925Z,7.70
2019-03-04T15:25:58.677Z,7.70
2019-03-04T15:27:51.817Z,7.80
2019-03-04T15:29:44.449Z,7.80
2019-03-04T15:31:37.336Z,7.80
2019-03-04T15:33:30.202Z,7.80
2019-03-04T15:35:23.227Z,7.90
2019-03-04T15:37:16.295Z,7.90
2019-03-04T15:39:11.313Z,8.00
2019-03-04T15:41:04.608Z,8.00
2019-03-04T15:42:57.969Z,8.00
2019-03-04T15:44:50.880Z,8.10
2019-03-04T15:46:43.780Z,8.10
2019-03-04T15:48:36.612Z,8.10
2019-03-04T15:50:29.620Z,8.20
2019-03-04T15:52:24.660Z,8.20
2019-03-04T15:54:17.661Z,8.30
2019-03-04T15:56:10.779Z,8.30
2019-03-04T15:58:03.394Z,8.30
2019-03-04T15:59:55.933Z,8.30
2019-03-04T16:01:48.822Z,8.40
2019-03-04T16:03:41.574Z,8.40
2019-03-04T16:05:34.434Z,8.50
2019-03-04T16:07:27.445Z,8.50
2019-03-04T16:09:20.698Z,8.50
2019-03-04T16:11:13.784Z,8.60
2019-03-04T16:13:08.263Z,8.60
2019-03-04T16:15:00.995Z,8.60
2019-03-04T16:16:55.284Z,8.70
2019-03-04T16:18:48.327Z,8.80
2019-03-04T16:20:40.603Z,8.80
2019-03-04T16:22:33.736Z,8.90
2019-03-04T16:24:26.440Z,8.90
2019-03-04T16:26:19.317Z,9.00
2019-03-04T16:28:20.956Z,9.10
2019-03-04T16:30:19.861Z,9.10
2019-03-04T16:32:12.817Z,9.10
2019-03-04T16:34:05.373Z,9.20
2019-03-04T16:35:57.984Z,9.30
2019-03-04T16:37:50.861Z,9.30
2019-03-04T16:39:44.372Z,9.40
2019-03-04T16:41:37.134Z,9.40
2019-03-04T16:43:29.784Z,9.30
2019-03-04T16:45:23.383Z,9.40
2019-03-04T16:47:16.380Z,9.40
2019-03-04T16:49:09.293Z,9.40
2019-03-04T16:51:02.324Z,9.50
2019-03-04T16:52:56.189Z,9.50
2019-03-04T16:54:49.312Z,9.50
2019-03-04T16:56:42.282Z,9.60
2019-03-04T16:58:35.052Z,9.60
2019-03-04T17:00:27.862Z,9.60
2019-03-04T17:02:20.699Z,9.60
2019-03-04T17:04:13.988Z,9.60
2019-03-04T17:06:06.557Z,9.70
2019-03-04T17:07:59.399Z,9.70
2019-03-04T17:09:51.791Z,9.70
2019-03-04T17:11:44.687Z,9.70
2019-03-04T17:13:37.148Z,9.60
2019-03-04T17:15:30.233Z,9.60
2019-03-04T17:17:23.061Z,9.60
2019-03-04T17:19:15.449Z,9.60
2019-03-04T17:21:08.664Z,9.60
2019-03-04T17:23:01.472Z,9.60
2019-03-04T17:24:54.029Z,9.60
2019-03-04T17:26:46.463Z,9.50
2019-03-04T17:28:39.329Z,9.50
2019-03-04T17:30:32.464Z,9.40
2019-03-04T17:32:25.784Z,9.50
2019-03-04T17:34:18.640Z,9.40
2019-03-04T17:36:11.421Z,9.40
2019-03-04T17:38:04.433Z,9.40
2019-03-04T17:39:57.229Z,9.40
2019-03-04T17:41:49.736Z,9.50
2019-03-04T17:43:42.712Z,9.40
2019-03-04T17:45:35.125Z,9.40
2019-03-04T17:47:28.233Z,9.50
2019-03-04T17:49:21.120Z,9.50
2019-03-04T17:51:13.955Z,9.40
2019-03-04T17:53:17.407Z,9.50
2019-03-04T17:55:12.899Z,9.40
2019-03-04T17:57:06.181Z,9.40
2019-03-04T17:58:59.523Z,9.40
2019-03-04T18:00:53.499Z,9.40
2019-03-04T18:02:46.266Z,9.40
2019-03-04T18:04:39.684Z,9.40
2019-03-04T18:06:32.879Z,9.30
2019-03-04T18:08:25.809Z,9.30
2019-03-04T18:10:18.389Z,9.30
2019-03-04T18:12:11.517Z,9.30
2019-03-04T18:14:04.635Z,9.30
2019-03-04T18:15:57.766Z,9.30
2019-03-04T18:17:50.212Z,9.30
2019-03-04T18:19:43.289Z,9.20
2019-03-04T18:21:36.400Z,9.20
2019-03-04T18:23:29.505Z,9.10
2019-03-04T18:25:40.148Z,9.10
2019-03-04T18:27:33.328Z,9.10
2019-03-04T18:29:48.023Z,9.00
2019-03-04T18:31:50.686Z,9.00
2019-03-04T18:34:05.580Z,8.90
2019-03-04T18:36:17.649Z,8.90
2019-03-04T18:38:29.515Z,8.90
2019-03-04T18:40:41.493Z,8.80
2019-03-04T18:42:37.848Z,8.70
2019-03-04T18:44:41.825Z,8.70
2019-03-04T18:46:53.417Z,8.70
2019-03-04T18:48:57.727Z,8.60
2019-03-04T18:50:51.305Z,8.60
2019-03-04T18:52:45.144Z,8.50
2019-03-04T18:54:39.121Z,8.50
2019-03-04T18:56:33.511Z,8.50
2019-03-04T18:58:28.338Z,8.50
2019-03-04T19:00:26.869Z,8.40
2019-03-04T19:02:21.113Z,8.40
2019-03-04T19:04:15.626Z,8.40
2019-03-04T19:06:09.958Z,8.30
2019-03-04T19:08:04.439Z,8.30
2019-03-04T19:09:58.990Z,8.40
2019-03-04T19:11:54.665Z,8.30
2019-03-04T19:13:49.265Z,8.30
2019-03-04T19:15:43.447Z,8.20
2019-03-04T19:17:38.440Z,8.20
2019-03-04T19:19:33.853Z,7.80
2019-03-04T19:21:31.819Z,7.50
2019-03-04T19:23:26.384Z,7.20
2019-03-04T19:25:21.076Z,6.70
2019-03-04T19:27:17.182Z,6.30
2019-03-04T19:29:11.364Z,6.10
2019-03-04T19:31:06.071Z,5.90
2019-03-04T19:33:00.569Z,5.80
2019-03-04T19:34:55.039Z,5.80
2019-03-04T19:36:49.924Z,5.70
2019-03-04T19:38:44.656Z,5.70
2019-03-04T19:40:39.117Z,5.60
2019-03-04T19:42:33.890Z,5.50
2019-03-04T19:44:28.371Z,5.50
2019-03-04T19:46:22.943Z,5.40
2019-03-04T19:48:17.663Z,5.40
2019-03-04T19:50:12.812Z,5.30
2019-03-04T19:52:07.608Z,5.30
2019-03-04T19:54:03.107Z,5.30
2019-03-04T19:55:50.810Z,5.30
2019-03-04T19:57:26.631Z,5.30
2019-03-04T19:59:03.032Z,5.30
2019-03-04T20:00:38.784Z,5.40
2019-03-04T20:02:14.658Z,5.40
2019-03-04T20:03:51.451Z,5.40
2019-03-04T20:05:27.225Z,5.40
2019-03-04T20:07:03.039Z,5.40
2019-03-04T20:08:38.890Z,5.40
2019-03-04T20:10:15.830Z,5.40
2019-03-04T20:11:52.243Z,5.50
2019-03-04T20:13:48.054Z,5.50
2019-03-04T20:15:25.272Z,5.50
2019-03-04T20:17:02.522Z,5.50
2019-03-04T20:18:41.590Z,5.60
2019-03-04T20:20:36.420Z,5.60
2019-03-04T20:22:30.772Z,5.70
2019-03-04T20:24:26.614Z,5.70
2019-03-04T20:26:21.331Z,5.70
2019-03-04T20:28:17.458Z,5.70
2019-03-04T20:30:17.368Z,5.60
2019-03-04T20:32:11.846Z,5.60
2019-03-04T20:34:06.597Z,5.60
2019-03-04T20:36:01.210Z,5.60
2019-03-04T20:38:08.085Z,5.60
2019-03-04T20:40:03.343Z,5.60
2019-03-04T20:41:58.111Z,5.50
2019-03-04T20:43:52.689Z,5.50
2019-03-04T20:45:46.869Z,5.40
2019-03-04T20:47:41.458Z,5.30
2019-03-04T20:49:37.119Z,5.10
2019-03-04T20:51:31.413Z,5.00
2019-03-04T20:53:26.075Z,4.90
2019-03-04T20:55:20.526Z,4.80
2019-03-04T20:57:14.605Z,4.80
2019-03-04T20:59:09.227Z,4.80
2019-03-04T21:01:04.353Z,4.80
2019-03-04T21:02:59.105Z,4.80
2019-03-04T21:04:53.801Z,4.80
2019-03-04T21:06:48.503Z,4.80
2019-03-04T21:08:44.803Z,4.80
2019-03-04T21:10:40.419Z,4.80
2019-03-04T21:12:35.063Z,4.80
2019-03-04T21:14:29.607Z,4.80
2019-03-04T21:16:24.722Z,4.80
2019-03-04T21:18:19.458Z,4.80
2019-03-04T21:20:18.125Z,4.80
2019-03-04T21:22:12.261Z,4.80
2019-03-04T21:24:06.949Z,4.80
2019-03-04T21:26:04.256Z,4.70
2019-03-04T21:27:58.633Z,4.70
2019-03-04T21:30:08.210Z,4.70
2019-03-04T21:32:17.803Z,4.70
2019-03-04T21:34:48.643Z,4.70
2019-03-04T21:37:02.692Z,4.70
2019-03-04T21:38:57.979Z,4.80
2019-03-04T21:41:07.298Z,4.80
2019-03-04T21:43:07.536Z,4.80
2019-03-04T21:45:07.942Z,4.80
2019-03-04T21:47:10.667Z,4.80
2019-03-04T21:49:07.183Z,4.90
2019-03-04T21:51:13.292Z,4.90
2019-03-04T21:53:12.896Z,5.00
2019-03-04T21:55:18.435Z,5.00
2019-03-04T21:57:23.205Z,5.00
2019-03-04T21:59:17.241Z,5.00
2019-03-04T22:01:19.128Z,4.90
2019-03-04T22:03:16.553Z,4.90
2019-03-04T22:05:12.856Z,4.80
2019-03-04T22:07:06.437Z,4.80
2019-03-04T22:09:00.300Z,4.70
2019-03-04T22:10:52.923Z,4.70
2019-03-04T22:12:46.161Z,4.70
2019-03-04T22:14:40.748Z,4.70
2019-03-04T22:16:37.935Z,4.60
2019-03-04T22:18:30.729Z,4.70
2019-03-04T22:20:23.660Z,4.70
2019-03-04T22:22:16.612Z,4.60
2019-03-04T22:24:09.578Z,4.60
2019-03-04T22:26:02.464Z,4.70
2019-03-04T22:27:56.556Z,4.70
2019-03-04T22:29:50.792Z,4.70
2019-03-04T22:31:43.346Z,4.60
2019-03-04T22:33:36.214Z,4.60
2019-03-04T22:35:28.873Z,4.70
2019-03-04T22:37:21.781Z,4.70
2019-03-04T22:39:14.703Z,4.70
2019-03-04T22:41:07.648Z,4.70
2019-03-04T22:43:01.301Z,4.70
2019-03-04T22:44:54.135Z,4.70
2019-03-04T22:46:46.628Z,4.80
2019-03-04T22:48:39.134Z,4.70
2019-03-04T22:50:31.584Z,4.70
2019-03-04T22:52:24.439Z,4.70
2019-03-04T22:54:17.257Z,4.70
2019-03-04T22:56:11.292Z,4.70
2019-03-04T22:58:04.162Z,4.70
2019-03-04T22:59:57.603Z,4.80
2019-03-04T23:01:54.274Z,4.80
2019-03-04T23:03:48.311Z,4.80
2019-03-04T23:05:41.272Z,4.90
2019-03-04T23:07:34.388Z,4.90
2019-03-04T23:09:33.508Z,4.90
2019-03-04T23:11:29.465Z,5.00
2019-03-04T23:13:34.265Z,5.00
2019-03-04T23:15:27.141Z,5.10
2019-03-04T23:17:20.064Z,5.10
2019-03-04T23:19:12.994Z,5.10
2019-03-04T23:21:06.616Z,5.00
2019-03-04T23:22:59.389Z,5.00
2019-03-04T23:24:52.222Z,4.90
2019-03-04T23:26:44.672Z,4.90
2019-03-04T23:28:37.156Z,4.80
2019-03-04T23:30:30.100Z,4.90
2019-03-04T23:32:22.860Z,4.90
2019-03-04T23:34:15.193Z,4.90
2019-03-04T23:36:08.052Z,4.90
2019-03-04T23:38:01.326Z,4.90
2019-03-04T23:39:53.744Z,4.90
2019-03-04T23:41:46.536Z,4.90
2019-03-04T23:43:38.993Z,4.90
2019-03-04T23:45:31.871Z,4.90
2019-03-04T23:47:24.735Z,5.00
2019-03-04T23:49:17.286Z,5.00
2019-03-04T23:51:10.062Z,5.00
2019-03-04T23:53:02.995Z,5.00
2019-03-04T23:54:55.925Z,5.00
2019-03-04T23:56:48.737Z,5.00
2019-03-04T23:58:41.558Z,5.10
